Time;durP1;ratioP1;P1;durP2;ratioP2;P2;SDS_P1;SDS_P2;PMS_P1;PMS_P2;Temp;Humidity;BMP_temperature;BMP_pressure;BME280_temperature;BME280_humidity;BME280_pressure;Samples;Min_cycle;Max_cycle;Signal;HPM_P1;HPM_P2
2022/01/23 00:02:03;;;;;;;7.38;5.10;;;;;;;;;;5035418;28;20221;-64
2022/01/23 00:04:30;;;;;;;11.55;4.85;;;;;;;;;;5034962;28;20237;-64
2022/01/23 00:06:59;;;;;;;11.68;5.60;;;;;;;;;;5034737;28;20320;-64
2022/01/23 00:09:26;;;;;;;6.18;4.65;;;;;;;;;;5034643;28;20203;-65
2022/01/23 00:11:56;;;;;;;10.23;5.60;;;;;;;;;;5034220;28;20202;-64
2022/01/23 00:17:17;;;;;;;7.78;4.80;;;;;;;;;;5003852;28;20197;-65
2022/01/23 00:19:44;;;;;;;6.78;6.15;;;;;;;;;;5034695;28;20210;-64
2022/01/23 00:22:12;;;;;;;6.80;4.15;;;;;;;;;;5033937;28;20231;-64
2022/01/23 00:30:30;;;;;;;10.38;4.93;;;;;;;;;;5034181;28;20247;-65
2022/01/23 00:32:58;;;;;;;6.28;5.20;;;;;;;;;;5034198;28;20228;-65
2022/01/23 00:35:25;;;;;;;6.88;5.03;;;;;;;;;;5034558;28;20205;-65
2022/01/23 00:37:52;;;;;;;9.65;5.07;;;;;;;;;;5034116;28;20204;-66
2022/01/23 00:40:20;;;;;;;8.40;5.43;;;;;;;;;;5032901;28;20225;-66
2022/01/23 00:42:48;;;;;;;11.13;4.63;;;;;;;;;;5033989;28;20643;-65
2022/01/23 00:45:32;;;;;;;4.88;4.47;;;;;;;;;;5033951;28;20274;-65
2022/01/23 00:48:03;;;;;;;6.20;5.13;;;;;;;;;;5034526;28;20212;-65
2022/01/23 00:50:31;;;;;;;8.15;4.72;;;;;;;;;;5034388;28;20208;-65
2022/01/23 00:52:58;;;;;;;7.38;4.63;;;;;;;;;;5033570;28;20237;-66
2022/01/23 00:55:25;;;;;;;5.53;4.65;;;;;;;;;;5033794;28;20285;-65
2022/01/23 00:57:54;;;;;;;4.82;4.30;;;;;;;;;;5033787;28;20230;-65
2022/01/23 01:00:21;;;;;;;13.93;5.47;;;;;;;;;;5033403;28;20302;-65
2022/01/23 01:02:49;;;;;;;6.00;5.20;;;;;;;;;;5033705;28;20559;-66
2022/01/23 01:05:16;;;;;;;7.40;5.43;;;;;;;;;;5033329;28;20285;-66
2022/01/23 01:07:44;;;;;;;5.25;4.75;;;;;;;;;;5034065;28;20560;-65
2022/01/23 01:10:16;;;;;;;8.00;5.10;;;;;;;;;;5033294;28;20372;-65
2022/01/23 01:12:45;;;;;;;5.20;4.63;;;;;;;;;;5033303;28;20189;-65
2022/01/23 01:32:00;;;;;;;4.97;4.47;;;;;;;;;;5033298;28;20185;-65
2022/01/23 01:34:35;;;;;;;4.60;4.20;;;;;;;;;;5033098;28;20216;-65
2022/01/23 01:37:03;;;;;;;5.35;4.20;;;;;;;;;;5033750;28;20600;-65
2022/01/23 01:39:31;;;;;;;4.68;4.28;;;;;;;;;;5033018;28;20573;-65
2022/01/23 01:41:59;;;;;;;5.25;3.90;;;;;;;;;;5032964;28;20260;-65
2022/01/23 01:44:26;;;;;;;9.30;4.53;;;;;;;;;;5032995;28;20615;-65
2022/01/23 01:46:55;;;;;;;4.72;4.32;;;;;;;;;;5032943;28;20244;-65
2022/01/23 01:49:28;;;;;;;5.60;4.25;;;;;;;;;;5032889;28;20285;-65
2022/01/23 01:51:55;;;;;;;4.95;3.80;;;;;;;;;;5035838;28;20194;-65
2022/01/23 01:54:25;;;;;;;8.75;4.20;;;;;;;;;;5036821;28;20229;-65
2022/01/23 01:57:04;;;;;;;4.47;4.07;;;;;;;;;;5037503;28;20230;-65
2022/01/23 01:59:48;;;;;;;5.18;4.13;;;;;;;;;;5037810;28;20562;-66
2022/01/23 02:10:33;;;;;;;5.20;4.18;;;;;;;;;;5036800;28;20212;-65
2022/01/23 02:13:11;;;;;;;6.32;4.90;;;;;;;;;;5036725;28;20692;-65
2022/01/23 02:18:41;;;;;;;6.07;4.53;;;;;;;;;;5036276;28;20201;-65
2022/01/23 02:24:21;;;;;;;6.70;4.85;;;;;;;;;;5036433;28;20182;-65
2022/01/23 02:51:49;;;;;;;6.57;5.68;;;;;;;;;;5036143;28;20592;-65
2022/01/23 02:57:05;;;;;;;5.95;5.35;;;;;;;;;;5025514;28;20257;-65
2022/01/23 02:59:36;;;;;;;8.60;5.35;;;;;;;;;;5035893;28;20204;-65
2022/01/23 03:02:10;;;;;;;5.60;4.30;;;;;;;;;;5035585;28;20572;-65
2022/01/23 03:04:48;;;;;;;12.00;5.38;;;;;;;;;;5036002;28;20542;-65
2022/01/23 03:07:32;;;;;;;7.85;5.97;;;;;;;;;;5035946;28;20668;-66
2022/01/23 03:10:04;;;;;;;6.10;5.35;;;;;;;;;;5036072;28;20232;-65
2022/01/23 03:15:25;;;;;;;6.15;5.63;;;;;;;;;;5010230;28;20424;-65
2022/01/23 03:26:31;;;;;;;7.40;5.10;;;;;;;;;;5035247;28;20193;-65
2022/01/23 03:29:15;;;;;;;7.40;5.85;;;;;;;;;;5035712;28;20539;-65
2022/01/23 03:31:44;;;;;;;12.48;6.65;;;;;;;;;;5035418;28;20189;-65
2022/01/23 03:34:11;;;;;;;7.68;6.53;;;;;;;;;;5035057;28;20201;-66
2022/01/23 03:36:39;;;;;;;7.25;6.10;;;;;;;;;;5035117;28;20244;-64
2022/01/23 03:39:08;;;;;;;8.35;6.32;;;;;;;;;;5035242;28;20208;-65
2022/01/23 03:41:38;;;;;;;17.15;7.20;;;;;;;;;;5035250;28;20211;-66
2022/01/23 03:44:06;;;;;;;11.52;6.70;;;;;;;;;;5034850;28;20288;-66
2022/01/23 03:46:49;;;;;;;8.35;6.30;;;;;;;;;;5034789;28;20209;-66
2022/01/23 03:49:32;;;;;;;8.20;6.72;;;;;;;;;;5035502;28;20236;-65
2022/01/23 03:52:00;;;;;;;7.22;6.53;;;;;;;;;;5035534;28;20195;-66
2022/01/23 03:54:28;;;;;;;9.35;6.53;;;;;;;;;;5034943;28;20198;-65
2022/01/23 03:56:57;;;;;;;9.38;7.30;;;;;;;;;;5034479;28;20233;-66
2022/01/23 03:59:25;;;;;;;8.75;7.30;;;;;;;;;;5035014;28;20291;-65
2022/01/23 04:01:52;;;;;;;9.13;8.10;;;;;;;;;;5034976;28;20328;-65
2022/01/23 04:07:04;;;;;;;9.50;7.28;;;;;;;;;;5033714;28;20217;-65
2022/01/23 04:09:31;;;;;;;9.90;7.55;;;;;;;;;;5034280;28;20196;-66
2022/01/23 04:12:00;;;;;;;9.80;6.40;;;;;;;;;;5034585;28;20287;-65
2022/01/23 04:14:29;;;;;;;10.65;8.43;;;;;;;;;;5034638;28;20201;-65
2022/01/23 04:17:22;;;;;;;9.90;7.97;;;;;;;;;;5034138;28;20201;-65
2022/01/23 04:20:06;;;;;;;10.15;8.20;;;;;;;;;;5035010;28;20199;-65
2022/01/23 04:33:46;;;;;;;10.95;7.82;;;;;;;;;;5034061;28;20233;-65
2022/01/23 05:01:22;;;;;;;12.90;9.75;;;;;;;;;;4992116;28;20245;-65
2022/01/23 05:04:11;;;;;;;11.98;9.43;;;;;;;;;;5017512;28;20203;-65
2022/01/23 05:06:43;;;;;;;16.13;10.73;;;;;;;;;;5033292;28;20268;-64
2022/01/23 05:09:11;;;;;;;21.10;11.70;;;;;;;;;;5034082;28;20568;-66
2022/01/23 05:11:42;;;;;;;15.57;10.15;;;;;;;;;;5034453;28;20201;-65
2022/01/23 05:14:10;;;;;;;16.48;10.05;;;;;;;;;;5034051;28;20195;-64
2022/01/23 05:16:38;;;;;;;13.50;11.10;;;;;;;;;;5033596;28;20208;-64
2022/01/23 05:19:06;;;;;;;15.00;10.18;;;;;;;;;;5033973;28;20251;-65
2022/01/23 05:24:15;;;;;;;12.10;10.70;;;;;;;;;;5031742;28;20194;-64
2022/01/23 05:26:45;;;;;;;15.98;11.57;;;;;;;;;;5037822;28;20226;-64
2022/01/23 05:29:13;;;;;;;18.70;11.77;;;;;;;;;;5040039;28;20281;-65
2022/01/23 05:31:42;;;;;;;12.98;11.27;;;;;;;;;;5039776;28;20200;-65
2022/01/23 05:34:09;;;;;;;14.63;11.25;;;;;;;;;;5040396;28;20552;-65
2022/01/23 05:36:36;;;;;;;16.90;11.95;;;;;;;;;;5039624;28;20232;-65
2022/01/23 05:39:03;;;;;;;17.00;12.10;;;;;;;;;;5040648;28;20284;-65
2022/01/23 05:41:31;;;;;;;17.42;11.30;;;;;;;;;;5039829;28;20303;-64
2022/01/23 05:43:58;;;;;;;18.63;11.88;;;;;;;;;;5040222;28;20611;-65
2022/01/23 05:46:26;;;;;;;18.58;12.57;;;;;;;;;;5040161;28;20205;-65
2022/01/23 05:48:54;;;;;;;16.88;12.13;;;;;;;;;;5039933;28;20252;-65
2022/01/23 05:51:22;;;;;;;14.30;12.13;;;;;;;;;;5039832;28;20293;-65
2022/01/23 05:53:50;;;;;;;15.60;11.80;;;;;;;;;;5038752;28;20665;-64
2022/01/23 05:56:17;;;;;;;19.13;12.73;;;;;;;;;;5039243;28;20203;-65
2022/01/23 05:58:44;;;;;;;15.50;11.45;;;;;;;;;;5039111;28;20662;-65
2022/01/23 06:01:12;;;;;;;20.63;13.27;;;;;;;;;;5039712;28;20265;-65
2022/01/23 06:03:39;;;;;;;16.38;12.98;;;;;;;;;;5039429;28;20198;-65
2022/01/23 06:06:08;;;;;;;14.48;10.80;;;;;;;;;;5039811;28;20233;-65
2022/01/23 06:08:35;;;;;;;16.83;11.50;;;;;;;;;;5039356;28;20240;-65
2022/01/23 06:11:02;;;;;;;18.20;11.98;;;;;;;;;;5039343;28;20287;-66
2022/01/23 06:13:30;;;;;;;17.58;11.48;;;;;;;;;;5039730;28;20255;-65
2022/01/23 06:15:58;;;;;;;19.10;14.20;;;;;;;;;;5039620;28;20284;-64
2022/01/23 06:18:25;;;;;;;16.50;12.65;;;;;;;;;;5039570;28;20613;-65
2022/01/23 06:20:52;;;;;;;15.65;12.18;;;;;;;;;;5039166;28;20291;-65
2022/01/23 06:23:21;;;;;;;19.50;15.02;;;;;;;;;;5039218;28;20734;-66
2022/01/23 06:25:49;;;;;;;17.80;11.63;;;;;;;;;;5039091;28;20197;-65
2022/01/23 06:28:21;;;;;;;18.95;13.43;;;;;;;;;;5040042;28;20197;-65
2022/01/23 06:30:48;;;;;;;14.88;10.93;;;;;;;;;;5039613;28;20293;-65
2022/01/23 06:33:16;;;;;;;16.00;11.48;;;;;;;;;;5039435;28;20289;-65
2022/01/23 06:35:43;;;;;;;17.85;12.40;;;;;;;;;;5039432;28;20237;-65
2022/01/23 06:38:11;;;;;;;20.50;11.65;;;;;;;;;;5035894;28;20610;-65
2022/01/23 06:40:39;;;;;;;12.13;10.60;;;;;;;;;;5036035;28;20230;-65
2022/01/23 06:43:06;;;;;;;13.63;10.52;;;;;;;;;;5035913;28;20314;-65
2022/01/23 06:45:34;;;;;;;16.40;11.90;;;;;;;;;;5036221;28;20630;-65
2022/01/23 06:48:01;;;;;;;16.15;12.68;;;;;;;;;;5035825;28;20197;-65
2022/01/23 06:50:28;;;;;;;18.45;11.70;;;;;;;;;;5036475;28;20270;-65
2022/01/23 06:52:55;;;;;;;19.40;11.27;;;;;;;;;;5036088;28;20225;-65
2022/01/23 06:55:23;;;;;;;16.92;12.27;;;;;;;;;;5035738;28;20285;-66
2022/01/23 06:57:51;;;;;;;17.70;11.80;;;;;;;;;;5036036;28;20620;-65
2022/01/23 07:00:18;;;;;;;13.23;10.70;;;;;;;;;;5036053;28;20614;-65
2022/01/23 07:02:46;;;;;;;20.25;12.50;;;;;;;;;;5035542;28;20254;-65
2022/01/23 07:05:13;;;;;;;20.20;11.52;;;;;;;;;;5035885;28;20285;-65
2022/01/23 07:07:40;;;;;;;19.80;11.85;;;;;;;;;;5035743;28;20328;-65
2022/01/23 07:10:08;;;;;;;19.08;12.73;;;;;;;;;;5035442;28;20290;-64
2022/01/23 07:12:35;;;;;;;23.58;13.10;;;;;;;;;;5035370;28;20284;-65
2022/01/23 07:15:04;;;;;;;15.55;12.15;;;;;;;;;;5035644;28;20282;-66
2022/01/23 07:17:31;;;;;;;20.27;12.25;;;;;;;;;;5035633;28;20313;-64
2022/01/23 07:19:58;;;;;;;20.55;11.57;;;;;;;;;;5035266;28;20294;-66
2022/01/23 07:22:26;;;;;;;16.77;11.75;;;;;;;;;;5035345;28;20568;-65
2022/01/23 07:24:54;;;;;;;18.50;12.40;;;;;;;;;;5035508;28;20294;-66
2022/01/23 07:27:22;;;;;;;17.23;12.80;;;;;;;;;;5034980;28;20202;-66
2022/01/23 07:29:49;;;;;;;16.55;12.70;;;;;;;;;;5035163;28;20202;-66
2022/01/23 07:32:18;;;;;;;14.88;11.52;;;;;;;;;;5035584;28;20230;-65
2022/01/23 07:34:45;;;;;;;16.80;12.32;;;;;;;;;;5035627;28;20306;-64
2022/01/23 07:37:12;;;;;;;13.10;10.50;;;;;;;;;;5035144;28;20290;-65
2022/01/23 07:39:40;;;;;;;18.35;12.35;;;;;;;;;;5034914;28;20657;-65
2022/01/23 07:42:07;;;;;;;21.92;13.55;;;;;;;;;;5035034;28;20306;-64
2022/01/23 07:44:35;;;;;;;21.98;12.10;;;;;;;;;;5035096;28;20613;-65
2022/01/23 07:47:02;;;;;;;25.48;12.38;;;;;;;;;;5034565;28;20237;-65
2022/01/23 07:49:32;;;;;;;17.25;13.02;;;;;;;;;;5034357;28;20231;-65
2022/01/23 07:51:59;;;;;;;20.77;11.10;;;;;;;;;;5035140;28;20206;-65
2022/01/23 07:54:26;;;;;;;14.70;10.93;;;;;;;;;;5034456;28;20229;-65
2022/01/23 07:56:54;;;;;;;14.55;9.95;;;;;;;;;;5034843;28;20198;-65
2022/01/23 07:59:21;;;;;;;15.38;11.23;;;;;;;;;;5034192;28;20497;-64
2022/01/23 08:01:48;;;;;;;20.67;13.75;;;;;;;;;;5034739;28;20258;-65
2022/01/23 08:04:15;;;;;;;16.27;12.27;;;;;;;;;;5034864;28;20290;-65
2022/01/23 08:06:46;;;;;;;17.92;10.48;;;;;;;;;;5034569;28;20269;-65
2022/01/23 08:09:15;;;;;;;15.48;11.98;;;;;;;;;;5034611;28;20202;-65
2022/01/23 08:11:42;;;;;;;17.05;12.77;;;;;;;;;;5034329;28;20245;-66
2022/01/23 08:14:09;;;;;;;16.95;11.85;;;;;;;;;;5034195;28;20198;-65
2022/01/23 08:16:36;;;;;;;13.00;10.45;;;;;;;;;;5034121;28;20201;-65
2022/01/23 08:19:04;;;;;;;20.30;11.68;;;;;;;;;;5034469;28;20231;-65
2022/01/23 08:21:33;;;;;;;15.15;11.85;;;;;;;;;;5034742;28;20299;-66
2022/01/23 08:24:01;;;;;;;13.80;10.80;;;;;;;;;;5034331;28;20296;-66
2022/01/23 08:26:29;;;;;;;15.93;10.60;;;;;;;;;;5034319;28;20303;-66
2022/01/23 08:28:56;;;;;;;15.93;10.40;;;;;;;;;;5034214;28;20285;-65
2022/01/23 08:31:23;;;;;;;19.52;11.05;;;;;;;;;;5033847;28;20683;-65
2022/01/23 08:33:51;;;;;;;17.17;12.18;;;;;;;;;;5034542;28;20195;-65
2022/01/23 08:36:18;;;;;;;14.10;10.90;;;;;;;;;;5034102;28;20202;-65
2022/01/23 08:38:45;;;;;;;14.30;11.90;;;;;;;;;;5034549;28;20641;-65
2022/01/23 08:43:59;;;;;;;15.52;11.15;;;;;;;;;;5033869;28;20264;-65
2022/01/23 08:46:26;;;;;;;14.52;11.30;;;;;;;;;;5033954;28;20238;-65
2022/01/23 08:48:56;;;;;;;15.88;12.60;;;;;;;;;;5033734;28;20301;-66
2022/01/23 08:51:23;;;;;;;15.50;11.68;;;;;;;;;;5033836;28;20226;-65
2022/01/23 08:53:50;;;;;;;15.43;11.60;;;;;;;;;;5033848;28;20205;-65
2022/01/23 08:56:19;;;;;;;18.67;11.27;;;;;;;;;;5033721;28;20231;-65
2022/01/23 08:58:46;;;;;;;16.13;12.45;;;;;;;;;;5033713;28;20195;-66
2022/01/23 09:01:13;;;;;;;13.60;11.32;;;;;;;;;;5033011;28;20304;-65
2022/01/23 09:03:42;;;;;;;17.65;11.77;;;;;;;;;;5033287;28;20313;-66
2022/01/23 09:06:09;;;;;;;19.13;11.18;;;;;;;;;;5034248;28;20595;-66
2022/01/23 09:08:38;;;;;;;15.88;11.35;;;;;;;;;;5034429;28;20244;-65
2022/01/23 09:11:09;;;;;;;17.88;11.40;;;;;;;;;;5033830;28;20202;-65
2022/01/23 09:13:53;;;;;;;15.55;11.55;;;;;;;;;;5016128;28;20254;-65
2022/01/23 09:16:21;;;;;;;21.90;10.82;;;;;;;;;;5013779;28;20187;-66
2022/01/23 09:18:48;;;;;;;14.27;10.65;;;;;;;;;;5013285;28;20739;-65
2022/01/23 09:21:15;;;;;;;20.92;12.50;;;;;;;;;;5013643;28;20291;-65
2022/01/23 09:23:43;;;;;;;15.05;11.23;;;;;;;;;;5013640;28;20258;-66
2022/01/23 09:26:14;;;;;;;13.23;10.68;;;;;;;;;;5014033;28;20281;-67
2022/01/23 09:28:44;;;;;;;14.75;10.73;;;;;;;;;;5014203;28;20287;-66
2022/01/23 09:31:12;;;;;;;13.18;11.30;;;;;;;;;;5013957;28;20645;-65
2022/01/23 09:33:40;;;;;;;17.75;10.75;;;;;;;;;;5013660;28;20203;-66
2022/01/23 09:36:08;;;;;;;17.73;11.15;;;;;;;;;;5013680;28;20283;-65
2022/01/23 09:38:36;;;;;;;14.57;11.48;;;;;;;;;;5013579;28;20210;-64
2022/01/23 09:41:04;;;;;;;13.35;10.40;;;;;;;;;;5013672;28;20211;-64
2022/01/23 09:43:31;;;;;;;15.52;9.93;;;;;;;;;;5013432;28;20664;-65
2022/01/23 09:46:05;;;;;;;14.05;10.95;;;;;;;;;;5013188;28;20198;-65
2022/01/23 09:48:33;;;;;;;15.50;11.57;;;;;;;;;;5013216;28;20190;-65
2022/01/23 09:51:01;;;;;;;13.25;11.68;;;;;;;;;;5013120;28;20199;-64
2022/01/23 09:53:29;;;;;;;16.92;11.50;;;;;;;;;;5013511;28;20293;-65
2022/01/23 09:56:02;;;;;;;12.65;9.50;;;;;;;;;;5013354;28;20207;-65
2022/01/23 09:58:30;;;;;;;13.85;9.48;;;;;;;;;;5013342;28;20537;-64
2022/01/23 10:00:57;;;;;;;12.32;9.82;;;;;;;;;;5013408;28;20547;-65
2022/01/23 10:03:26;;;;;;;12.70;8.85;;;;;;;;;;5013383;28;20246;-65
2022/01/23 10:05:54;;;;;;;10.77;9.40;;;;;;;;;;5013260;28;20194;-65
2022/01/23 10:08:22;;;;;;;14.13;9.15;;;;;;;;;;5013336;28;20349;-65
2022/01/23 10:10:53;;;;;;;14.25;10.38;;;;;;;;;;5013314;28;20202;-65
2022/01/23 10:13:22;;;;;;;15.50;9.20;;;;;;;;;;5016296;28;20203;-65
2022/01/23 10:15:49;;;;;;;11.85;8.05;;;;;;;;;;5016916;28;20290;-65
2022/01/23 10:18:17;;;;;;;14.15;9.55;;;;;;;;;;5016776;28;20609;-65
2022/01/23 10:20:46;;;;;;;12.32;9.52;;;;;;;;;;5015893;28;20235;-65
2022/01/23 10:23:14;;;;;;;9.48;8.48;;;;;;;;;;5015907;28;20230;-65
2022/01/23 10:25:42;;;;;;;11.32;7.28;;;;;;;;;;5016465;28;20237;-65
2022/01/23 10:28:10;;;;;;;9.63;7.93;;;;;;;;;;5016501;28;20199;-65
2022/01/23 10:30:39;;;;;;;9.35;7.88;;;;;;;;;;5016276;28;20196;-65
2022/01/23 10:33:10;;;;;;;11.17;8.43;;;;;;;;;;5016363;28;20200;-65
2022/01/23 10:35:53;;;;;;;9.37;7.73;;;;;;;;;;5016801;28;20442;-66
2022/01/23 10:38:23;;;;;;;12.75;7.75;;;;;;;;;;5016224;28;20489;-65
2022/01/23 10:40:55;;;;;;;8.43;7.57;;;;;;;;;;5016398;28;20657;-65
2022/01/23 10:48:45;;;;;;;8.80;6.43;;;;;;;;;;5015951;28;20458;-65
2022/01/23 10:51:26;;;;;;;5.57;5.03;;;;;;;;;;5015958;28;20443;-66
2022/01/23 10:54:15;;;;;;;8.40;6.23;;;;;;;;;;5016134;28;20485;-65
2022/01/23 10:57:00;;;;;;;7.10;5.70;;;;;;;;;;5016618;28;20431;-66
2022/01/23 10:59:28;;;;;;;8.47;6.50;;;;;;;;;;5016030;28;20483;-65
2022/01/23 11:02:04;;;;;;;7.53;6.05;;;;;;;;;;5016121;28;20550;-65
2022/01/23 11:04:33;;;;;;;7.43;5.63;;;;;;;;;;5016133;28;20216;-66
2022/01/23 11:07:01;;;;;;;9.03;6.17;;;;;;;;;;5015721;28;20998;-65
2022/01/23 11:09:30;;;;;;;6.33;5.73;;;;;;;;;;5015854;28;20546;-65
2022/01/23 11:12:12;;;;;;;6.53;5.10;;;;;;;;;;5015475;28;20879;-65
2022/01/23 11:17:26;;;;;;;10.47;5.90;;;;;;;;;;5015672;28;20958;-65
2022/01/23 11:19:58;;;;;;;4.37;3.60;;;;;;;;;;5015618;28;20486;-65
2022/01/23 11:22:26;;;;;;;8.23;4.60;;;;;;;;;;5016034;28;20439;-65
2022/01/23 11:24:54;;;;;;;5.87;5.27;;;;;;;;;;5015024;28;20478;-65
2022/01/23 11:27:22;;;;;;;5.53;4.60;;;;;;;;;;5015776;28;20486;-65
2022/01/23 11:29:55;;;;;;;4.78;4.25;;;;;;;;;;5015620;28;20841;-65
2022/01/23 11:32:23;;;;;;;5.87;5.07;;;;;;;;;;5015546;28;20565;-64
2022/01/23 11:34:52;;;;;;;4.70;3.87;;;;;;;;;;5015498;28;20465;-65
2022/01/23 11:37:19;;;;;;;6.80;5.10;;;;;;;;;;5015920;28;20545;-65
2022/01/23 11:39:51;;;;;;;5.70;3.73;;;;;;;;;;5015214;28;20451;-65
2022/01/23 11:50:47;;;;;;;4.00;2.63;;;;;;;;;;5014893;28;20403;-65
2022/01/23 11:56:35;;;;;;;2.53;2.10;;;;;;;;;;5015302;28;20423;-65
2022/01/23 11:59:14;;;;;;;2.50;2.00;;;;;;;;;;5014972;28;20457;-66
2022/01/23 12:01:44;;;;;;;1.90;1.80;;;;;;;;;;5014618;28;20426;-66
2022/01/23 12:04:17;;;;;;;2.27;2.03;;;;;;;;;;5015031;28;20302;-66
2022/01/23 12:06:46;;;;;;;2.10;1.90;;;;;;;;;;5014344;28;20489;-65
2022/01/23 12:09:20;;;;;;;1.83;1.40;;;;;;;;;;5014799;28;20191;-65
2022/01/23 12:12:05;;;;;;;2.28;1.60;;;;;;;;;;5014667;28;20188;-65
2022/01/23 12:17:24;;;;;;;2.10;1.90;;;;;;;;;;5014609;28;20438;-65
2022/01/23 12:19:53;;;;;;;4.18;2.85;;;;;;;;;;5014320;28;20671;-65
2022/01/23 12:22:25;;;;;;;5.45;2.20;;;;;;;;;;5013700;28;20200;-65
2022/01/23 12:24:53;;;;;;;3.20;2.45;;;;;;;;;;5013834;28;20220;-65
2022/01/23 12:27:24;;;;;;;3.33;2.73;;;;;;;;;;5014112;28;20201;-65
2022/01/23 12:29:51;;;;;;;4.75;2.83;;;;;;;;;;5013911;28;20515;-66
2022/01/23 12:32:19;;;;;;;2.60;2.30;;;;;;;;;;5014482;28;20227;-65
2022/01/23 12:34:49;;;;;;;3.17;2.87;;;;;;;;;;5013780;28;20474;-66
2022/01/23 12:37:17;;;;;;;2.55;2.35;;;;;;;;;;5014217;28;20951;-65
2022/01/23 12:39:46;;;;;;;2.70;2.50;;;;;;;;;;5014095;28;20726;-66
2022/01/23 12:42:13;;;;;;;2.40;2.20;;;;;;;;;;5013978;28;20443;-66
2022/01/23 12:44:41;;;;;;;3.20;2.27;;;;;;;;;;5014082;28;20573;-67
2022/01/23 12:47:18;;;;;;;2.35;2.15;;;;;;;;;;5014252;28;20479;-66
2022/01/23 12:49:50;;;;;;;2.20;2.00;;;;;;;;;;5014581;28;20589;-66
2022/01/23 12:52:18;;;;;;;4.10;2.17;;;;;;;;;;5013980;28;20467;-65
2022/01/23 12:54:56;;;;;;;2.17;2.03;;;;;;;;;;5014730;28;20782;-66
2022/01/23 12:57:35;;;;;;;3.03;2.13;;;;;;;;;;5014291;28;20767;-66
2022/01/23 13:00:06;;;;;;;2.50;2.30;;;;;;;;;;5013772;28;20907;-67
2022/01/23 13:02:40;;;;;;;2.70;2.50;;;;;;;;;;5014288;28;20436;-66
2022/01/23 13:05:10;;;;;;;2.30;2.10;;;;;;;;;;5013684;28;20482;-66
2022/01/23 13:07:43;;;;;;;2.90;2.43;;;;;;;;;;5014216;28;20614;-65
2022/01/23 13:10:25;;;;;;;3.07;2.60;;;;;;;;;;5013720;28;20439;-65
2022/01/23 13:13:07;;;;;;;4.37;2.30;;;;;;;;;;5013948;28;20481;-66
2022/01/23 13:16:04;;;;;;;2.53;2.33;;;;;;;;;;5013950;28;20426;-66
2022/01/23 13:18:44;;;;;;;2.80;2.53;;;;;;;;;;5013594;28;20427;-66
2022/01/23 13:32:19;;;;;;;4.47;3.80;;;;;;;;;;5013719;28;20535;-66
2022/01/23 13:34:49;;;;;;;4.03;3.63;;;;;;;;;;5013839;28;20479;-65
2022/01/23 13:37:19;;;;;;;4.60;4.20;;;;;;;;;;5013220;28;20447;-65
2022/01/23 13:39:50;;;;;;;4.40;4.00;;;;;;;;;;5013260;28;20443;-66
2022/01/23 13:53:52;;;;;;;4.27;3.53;;;;;;;;;;5017394;28;20430;-67
2022/01/23 13:59:09;;;;;;;4.40;3.10;;;;;;;;;;5017189;28;20403;-66
2022/01/23 14:01:49;;;;;;;4.70;3.83;;;;;;;;;;5017004;28;20447;-67
2022/01/23 14:04:17;;;;;;;5.40;4.00;;;;;;;;;;5016869;28;20566;-66
2022/01/23 14:06:44;;;;;;;5.93;4.30;;;;;;;;;;5016701;28;20573;-66
2022/01/23 14:09:13;;;;;;;4.40;4.00;;;;;;;;;;5016922;28;20445;-66
2022/01/23 14:11:41;;;;;;;5.20;4.00;;;;;;;;;;5017268;28;20489;-67
2022/01/23 14:14:10;;;;;;;4.13;3.70;;;;;;;;;;5016767;28;20450;-66
2022/01/23 14:16:37;;;;;;;3.60;3.30;;;;;;;;;;5017000;28;20445;-66
2022/01/23 14:19:18;;;;;;;4.87;3.60;;;;;;;;;;5017213;28;20539;-66
2022/01/23 14:21:46;;;;;;;5.70;3.70;;;;;;;;;;5016079;28;20470;-65
2022/01/23 14:24:20;;;;;;;5.17;3.70;;;;;;;;;;5016507;28;20581;-65
2022/01/23 14:26:56;;;;;;;4.60;3.63;;;;;;;;;;5016771;28;20485;-66
2022/01/23 14:29:24;;;;;;;4.17;3.77;;;;;;;;;;5016469;28;20477;-66
2022/01/23 14:32:05;;;;;;;4.63;3.90;;;;;;;;;;5016594;28;20447;-67
2022/01/23 14:34:32;;;;;;;4.77;3.77;;;;;;;;;;5016509;28;20431;-65
2022/01/23 14:37:03;;;;;;;4.40;4.00;;;;;;;;;;5016239;28;20460;-65
2022/01/23 14:39:32;;;;;;;4.87;4.47;;;;;;;;;;5017042;28;20515;-66
2022/01/23 14:42:10;;;;;;;7.30;4.70;;;;;;;;;;5016092;28;20507;-66
2022/01/23 14:44:37;;;;;;;5.90;5.20;;;;;;;;;;5016132;28;20219;-66
2022/01/23 14:47:05;;;;;;;5.47;4.77;;;;;;;;;;5015970;28;20446;-66
2022/01/23 14:49:33;;;;;;;6.22;5.63;;;;;;;;;;5016371;28;20437;-66
2022/01/23 14:52:02;;;;;;;8.70;5.23;;;;;;;;;;5016193;28;20269;-66
2022/01/23 14:54:31;;;;;;;5.73;4.90;;;;;;;;;;5016213;28;20501;-66
2022/01/23 14:57:01;;;;;;;5.60;4.97;;;;;;;;;;5016010;28;20480;-66
2022/01/23 14:59:31;;;;;;;6.27;5.40;;;;;;;;;;5014829;28;20450;-67
2022/01/23 15:01:58;;;;;;;5.70;5.10;;;;;;;;;;5016348;28;20469;-66
2022/01/23 15:04:26;;;;;;;7.17;6.10;;;;;;;;;;5015591;28;20517;-66
2022/01/23 15:06:53;;;;;;;7.60;6.50;;;;;;;;;;5015680;28;20471;-66
2022/01/23 15:09:22;;;;;;;8.00;7.00;;;;;;;;;;5015941;28;20527;-66
2022/01/23 15:11:50;;;;;;;9.55;7.72;;;;;;;;;;5015402;28;20530;-67
2022/01/23 15:14:19;;;;;;;8.30;6.60;;;;;;;;;;5015527;28;20200;-67
2022/01/23 15:16:48;;;;;;;9.47;6.77;;;;;;;;;;5015688;28;20452;-67
2022/01/23 15:19:16;;;;;;;9.25;7.13;;;;;;;;;;5015836;28;20809;-67
2022/01/23 15:21:43;;;;;;;9.00;7.17;;;;;;;;;;5015448;28;20196;-67
2022/01/23 15:24:10;;;;;;;9.25;7.40;;;;;;;;;;5015263;28;20979;-66
2022/01/23 15:26:39;;;;;;;10.00;6.90;;;;;;;;;;5015668;28;20209;-68
2022/01/23 15:29:07;;;;;;;9.57;7.23;;;;;;;;;;5015242;28;20538;-68
2022/01/23 15:31:37;;;;;;;8.60;5.83;;;;;;;;;;5015384;28;20505;-68
2022/01/23 15:34:05;;;;;;;12.37;6.87;;;;;;;;;;5015347;28;20921;-70
2022/01/23 15:36:32;;;;;;;7.55;6.30;;;;;;;;;;5015287;28;20984;-72
2022/01/23 15:39:01;;;;;;;6.73;6.00;;;;;;;;;;5015111;28;20283;-65
2022/01/23 15:41:28;;;;;;;13.83;7.10;;;;;;;;;;5015078;28;20447;-65
2022/01/23 15:43:56;;;;;;;7.32;6.30;;;;;;;;;;5014557;28;20536;-65
2022/01/23 15:46:23;;;;;;;8.18;6.50;;;;;;;;;;5013919;28;20188;-65
2022/01/23 15:48:52;;;;;;;8.00;7.00;;;;;;;;;;5014422;28;20246;-65
2022/01/23 15:51:19;;;;;;;8.35;6.07;;;;;;;;;;5015124;28;20470;-65
2022/01/23 15:53:46;;;;;;;10.05;6.82;;;;;;;;;;5015094;28;20608;-65
2022/01/23 15:56:13;;;;;;;9.30;7.70;;;;;;;;;;5014970;28;20286;-66
2022/01/23 15:58:41;;;;;;;8.48;6.30;;;;;;;;;;5015271;28;20249;-65
2022/01/23 16:01:08;;;;;;;6.17;5.40;;;;;;;;;;5015024;28;20241;-65
2022/01/23 16:03:35;;;;;;;11.00;6.85;;;;;;;;;;5015159;28;20487;-65
2022/01/23 16:06:04;;;;;;;14.33;11.70;;;;;;;;;;5014598;28;20288;-65
2022/01/23 16:08:31;;;;;;;11.73;8.23;;;;;;;;;;5014269;28;20508;-65
2022/01/23 16:11:00;;;;;;;8.63;5.72;;;;;;;;;;5014173;28;20228;-65
2022/01/23 16:13:29;;;;;;;8.70;6.70;;;;;;;;;;5014358;28;20342;-65
2022/01/23 16:15:56;;;;;;;7.32;5.55;;;;;;;;;;5014650;28;20451;-65
2022/01/23 16:18:23;;;;;;;7.90;6.45;;;;;;;;;;5014548;28;20601;-65
2022/01/23 16:20:52;;;;;;;7.93;6.97;;;;;;;;;;5014578;28;20207;-65
2022/01/23 16:23:21;;;;;;;11.93;8.40;;;;;;;;;;5014241;28;20532;-65
2022/01/23 16:25:48;;;;;;;10.95;7.80;;;;;;;;;;5014134;28;20309;-65
2022/01/23 16:28:16;;;;;;;8.57;6.13;;;;;;;;;;5014120;28;20199;-65
2022/01/23 16:30:45;;;;;;;6.30;5.60;;;;;;;;;;5014037;28;20540;-65
2022/01/23 16:33:12;;;;;;;18.55;13.35;;;;;;;;;;5013956;28;20207;-65
2022/01/23 16:35:40;;;;;;;42.88;24.42;;;;;;;;;;5014034;28;20227;-65
2022/01/23 16:38:07;;;;;;;27.25;17.88;;;;;;;;;;5013857;28;20635;-65
2022/01/23 16:40:36;;;;;;;10.23;6.93;;;;;;;;;;5014356;28;20278;-65
2022/01/23 16:43:03;;;;;;;7.45;6.53;;;;;;;;;;5013738;28;20677;-65
2022/01/23 16:45:30;;;;;;;8.50;6.20;;;;;;;;;;5013706;28;20302;-65
2022/01/23 16:47:57;;;;;;;8.20;6.60;;;;;;;;;;5013730;28;20288;-65
2022/01/23 16:50:24;;;;;;;11.68;8.65;;;;;;;;;;5013952;28;20536;-65
2022/01/23 16:52:52;;;;;;;7.10;6.30;;;;;;;;;;5014265;28;20294;-65
2022/01/23 16:55:20;;;;;;;10.80;7.43;;;;;;;;;;5014011;28;20458;-65
2022/01/23 16:57:48;;;;;;;10.68;7.30;;;;;;;;;;5013609;28;20207;-65
2022/01/23 17:00:16;;;;;;;8.75;6.13;;;;;;;;;;5014099;28;20287;-65
2022/01/23 17:02:43;;;;;;;9.35;7.28;;;;;;;;;;5013947;28;20606;-65
2022/01/23 17:05:11;;;;;;;7.78;5.80;;;;;;;;;;5013692;28;20279;-65
2022/01/23 17:07:38;;;;;;;8.50;7.40;;;;;;;;;;5013664;28;20272;-66
2022/01/23 17:10:07;;;;;;;9.33;6.80;;;;;;;;;;5013325;28;20204;-66
2022/01/23 17:12:34;;;;;;;8.13;6.95;;;;;;;;;;5014188;28;20450;-65
2022/01/23 17:15:03;;;;;;;6.22;5.60;;;;;;;;;;5013813;28;20297;-66
2022/01/23 17:17:31;;;;;;;8.07;6.70;;;;;;;;;;5013239;28;20283;-65
2022/01/23 17:19:58;;;;;;;10.60;6.32;;;;;;;;;;5014313;28;20435;-65
2022/01/23 17:22:25;;;;;;;11.87;7.13;;;;;;;;;;5012618;28;20287;-64
2022/01/23 17:24:53;;;;;;;12.40;7.73;;;;;;;;;;5013718;28;20577;-64
2022/01/23 17:27:20;;;;;;;8.82;6.97;;;;;;;;;;5013818;28;20475;-64
2022/01/23 17:29:47;;;;;;;9.57;6.45;;;;;;;;;;5013441;28;20279;-64
2022/01/23 17:32:17;;;;;;;9.23;7.07;;;;;;;;;;5013573;28;20293;-64
2022/01/23 17:34:44;;;;;;;8.30;6.20;;;;;;;;;;5013742;28;20443;-64
2022/01/23 17:37:11;;;;;;;8.68;6.60;;;;;;;;;;5013755;28;20542;-64
2022/01/23 17:39:39;;;;;;;11.30;8.10;;;;;;;;;;5013578;28;20255;-64